Time;durP1;ratioP1;P1;durP2;ratioP2;P2;SDS_P1;SDS_P2;PMS_P1;PMS_P2;Temp;Humidity;BMP_temperature;BMP_pressure;BME280_temperature;BME280_humidity;BME280_pressure;Samples;Min_cycle;Max_cycle;Signal;HPM_P1;HPM_P2
2023/03/09 00:00:55;;;;;;;21.98;11.70;;;;;;;;;;4848648;29;20463;-76
2023/03/09 00:03:22;;;;;;;21.42;12.90;;;;;;;;;;4845017;29;20099;-76
2023/03/09 00:05:55;;;;;;;20.90;12.30;;;;;;;;;;4844417;29;20087;-76
2023/03/09 00:08:22;;;;;;;20.02;11.52;;;;;;;;;;4844724;29;20109;-76
2023/03/09 00:10:51;;;;;;;17.55;12.43;;;;;;;;;;4860659;29;20044;-76
2023/03/09 00:13:18;;;;;;;19.65;13.02;;;;;;;;;;4846678;29;20789;-76
2023/03/09 00:15:49;;;;;;;20.13;13.05;;;;;;;;;;4844699;29;20047;-76
2023/03/09 00:18:16;;;;;;;19.92;12.75;;;;;;;;;;4845726;29;20075;-76
2023/03/09 00:20:42;;;;;;;19.33;12.60;;;;;;;;;;4844470;29;20052;-76
2023/03/09 00:23:08;;;;;;;22.17;12.85;;;;;;;;;;4831483;29;20378;-76
2023/03/09 00:25:35;;;;;;;23.55;13.25;;;;;;;;;;4827903;29;20545;-77
2023/03/09 00:28:01;;;;;;;23.40;13.80;;;;;;;;;;4846048;29;20097;-76
2023/03/09 00:30:27;;;;;;;21.13;12.60;;;;;;;;;;4826923;29;20175;-76
2023/03/09 00:32:54;;;;;;;22.73;13.10;;;;;;;;;;4860143;29;20049;-76
2023/03/09 00:35:20;;;;;;;23.48;13.80;;;;;;;;;;4833161;29;20117;-76
2023/03/09 00:37:46;;;;;;;26.15;13.90;;;;;;;;;;4830308;29;20052;-76
2023/03/09 00:40:14;;;;;;;26.27;14.15;;;;;;;;;;4830617;29;20139;-76
2023/03/09 00:42:44;;;;;;;26.63;14.52;;;;;;;;;;4830958;29;20049;-76
2023/03/09 00:45:11;;;;;;;22.00;13.45;;;;;;;;;;4846238;29;20056;-76
2023/03/09 00:47:37;;;;;;;25.85;13.65;;;;;;;;;;4844132;29;21454;-76
2023/03/09 00:50:04;;;;;;;27.23;14.40;;;;;;;;;;4845277;29;21753;-76
2023/03/09 00:52:30;;;;;;;26.00;14.20;;;;;;;;;;4847743;29;20079;-76
2023/03/09 00:54:56;;;;;;;24.50;13.65;;;;;;;;;;4830744;29;20581;-76
2023/03/09 00:57:23;;;;;;;24.88;15.15;;;;;;;;;;4844410;29;20152;-76
2023/03/09 00:59:51;;;;;;;26.08;15.02;;;;;;;;;;4845183;29;20060;-76
2023/03/09 01:02:18;;;;;;;27.58;15.43;;;;;;;;;;4846905;29;20500;-76
2023/03/09 01:04:44;;;;;;;27.63;15.35;;;;;;;;;;4846762;29;20049;-76
2023/03/09 01:07:10;;;;;;;28.67;15.07;;;;;;;;;;4826915;29;20172;-76
2023/03/09 01:09:37;;;;;;;29.27;15.95;;;;;;;;;;4843060;29;20076;-76
2023/03/09 01:12:04;;;;;;;23.63;14.75;;;;;;;;;;4859044;29;20101;-76
2023/03/09 01:14:30;;;;;;;26.33;15.23;;;;;;;;;;4845367;29;20168;-77
2023/03/09 01:16:56;;;;;;;24.90;15.10;;;;;;;;;;4844804;29;20047;-76
2023/03/09 01:19:22;;;;;;;24.08;13.68;;;;;;;;;;4842923;29;20653;-76
2023/03/09 01:21:48;;;;;;;26.63;14.18;;;;;;;;;;4825268;29;20127;-76
2023/03/09 01:24:15;;;;;;;23.52;14.13;;;;;;;;;;4828255;29;20132;-76
2023/03/09 01:26:41;;;;;;;23.17;14.25;;;;;;;;;;4844164;29;20140;-76
2023/03/09 01:29:07;;;;;;;24.10;13.90;;;;;;;;;;4825134;29;20059;-76
2023/03/09 01:31:33;;;;;;;23.77;14.68;;;;;;;;;;4828842;29;20048;-76
2023/03/09 01:33:59;;;;;;;27.42;15.68;;;;;;;;;;4845592;29;20041;-76
2023/03/09 01:36:25;;;;;;;24.88;15.07;;;;;;;;;;4846665;29;20059;-76
2023/03/09 01:38:51;;;;;;;27.63;17.02;;;;;;;;;;4848319;29;20060;-76
2023/03/09 01:41:18;;;;;;;28.10;17.30;;;;;;;;;;4850967;29;20397;-76
2023/03/09 01:43:46;;;;;;;32.80;18.30;;;;;;;;;;4852404;29;20045;-76
2023/03/09 01:46:31;;;;;;;34.08;20.08;;;;;;;;;;4832262;29;20205;-76
2023/03/09 01:49:08;;;;;;;30.95;19.10;;;;;;;;;;4845032;29;20112;-76
2023/03/09 01:51:50;;;;;;;30.20;18.77;;;;;;;;;;4835352;29;20536;-76
2023/03/09 01:54:36;;;;;;;36.85;19.10;;;;;;;;;;4830078;29;20059;-76
2023/03/09 01:57:09;;;;;;;29.20;17.77;;;;;;;;;;4851613;29;20592;-77
2023/03/09 01:59:35;;;;;;;30.10;18.42;;;;;;;;;;4838037;29;20152;-76
2023/03/09 02:02:02;;;;;;;31.25;18.63;;;;;;;;;;4845413;29;20111;-77
2023/03/09 02:04:32;;;;;;;29.60;18.63;;;;;;;;;;4829825;29;20553;-76
2023/03/09 02:06:59;;;;;;;35.90;20.52;;;;;;;;;;4860734;29;20480;-76
2023/03/09 02:09:33;;;;;;;32.05;18.58;;;;;;;;;;4846325;29;20040;-76
2023/03/09 02:11:59;;;;;;;32.15;18.42;;;;;;;;;;4849101;29;20076;-75
2023/03/09 02:14:26;;;;;;;32.38;18.63;;;;;;;;;;4846619;29;20053;-75
2023/03/09 02:16:52;;;;;;;29.45;17.83;;;;;;;;;;4845860;29;20045;-75
2023/03/09 02:19:23;;;;;;;30.45;17.52;;;;;;;;;;4850715;29;20075;-75
2023/03/09 02:21:51;;;;;;;29.75;18.15;;;;;;;;;;4845951;29;20096;-76
2023/03/09 02:24:26;;;;;;;29.25;17.55;;;;;;;;;;4846710;29;20144;-75
2023/03/09 02:26:57;;;;;;;28.10;16.17;;;;;;;;;;4846878;29;21209;-75
2023/03/09 02:29:24;;;;;;;27.02;16.33;;;;;;;;;;4841675;29;20100;-75
2023/03/09 02:31:50;;;;;;;24.20;15.77;;;;;;;;;;4846696;29;20056;-75
2023/03/09 02:34:16;;;;;;;24.20;15.40;;;;;;;;;;4829785;29;20277;-75
2023/03/09 02:36:42;;;;;;;25.38;16.88;;;;;;;;;;4847036;29;20128;-76
2023/03/09 02:39:28;;;;;;;27.35;17.15;;;;;;;;;;4831819;29;20093;-75
2023/03/09 02:41:56;;;;;;;24.88;16.55;;;;;;;;;;4852299;29;20056;-76
2023/03/09 02:44:23;;;;;;;26.98;17.23;;;;;;;;;;4847243;29;20123;-76
2023/03/09 02:46:49;;;;;;;28.58;17.60;;;;;;;;;;4839950;29;20306;-76
2023/03/09 02:49:15;;;;;;;35.47;17.67;;;;;;;;;;4848196;29;20143;-75
2023/03/09 02:51:41;;;;;;;29.60;18.58;;;;;;;;;;4836263;29;20723;-76
2023/03/09 02:54:07;;;;;;;28.98;17.10;;;;;;;;;;4842969;29;20151;-76
2023/03/09 02:56:33;;;;;;;33.00;18.35;;;;;;;;;;4844558;29;20052;-76
2023/03/09 02:59:02;;;;;;;31.45;17.65;;;;;;;;;;4844644;29;20518;-76
2023/03/09 03:01:28;;;;;;;29.13;18.27;;;;;;;;;;4846176;29;20071;-76
2023/03/09 03:03:54;;;;;;;30.30;18.58;;;;;;;;;;4846053;29;20080;-76
2023/03/09 03:06:20;;;;;;;29.58;18.92;;;;;;;;;;4845112;29;20493;-76
2023/03/09 03:08:46;;;;;;;34.67;20.08;;;;;;;;;;4845396;29;20088;-76
2023/03/09 03:11:12;;;;;;;33.58;19.08;;;;;;;;;;4842161;29;20049;-76
2023/03/09 03:13:39;;;;;;;36.90;19.00;;;;;;;;;;4825462;29;20059;-76
2023/03/09 03:16:05;;;;;;;34.22;19.55;;;;;;;;;;4838992;29;20049;-76
2023/03/09 03:18:31;;;;;;;36.42;18.73;;;;;;;;;;4843437;29;20222;-76
2023/03/09 03:20:57;;;;;;;34.97;19.13;;;;;;;;;;4839717;29;20616;-76
2023/03/09 03:23:23;;;;;;;30.90;18.58;;;;;;;;;;4860083;29;20108;-75
2023/03/09 03:25:49;;;;;;;34.00;19.33;;;;;;;;;;4847829;29;20064;-76
2023/03/09 03:28:16;;;;;;;32.25;20.00;;;;;;;;;;4845996;29;20048;-76
2023/03/09 03:30:42;;;;;;;28.83;17.05;;;;;;;;;;4847157;29;20057;-76
2023/03/09 03:33:08;;;;;;;30.52;17.30;;;;;;;;;;4843565;29;20128;-76
2023/03/09 03:35:34;;;;;;;33.70;18.73;;;;;;;;;;4841062;29;21596;-75
2023/03/09 03:38:00;;;;;;;30.10;17.98;;;;;;;;;;4842607;29;20147;-76
2023/03/09 03:40:26;;;;;;;35.15;18.38;;;;;;;;;;4840312;29;20072;-75
2023/03/09 03:42:52;;;;;;;27.58;15.88;;;;;;;;;;4841340;29;20045;-76
2023/03/09 03:45:19;;;;;;;29.55;16.23;;;;;;;;;;4841280;29;20163;-76
2023/03/09 03:47:45;;;;;;;27.88;15.93;;;;;;;;;;4840028;29;20190;-76
2023/03/09 03:50:12;;;;;;;27.52;15.63;;;;;;;;;;4829824;29;20975;-75
2023/03/09 03:52:38;;;;;;;27.88;17.02;;;;;;;;;;4842566;29;20083;-76
2023/03/09 03:55:05;;;;;;;30.38;16.23;;;;;;;;;;4824458;29;20045;-76
2023/03/09 03:57:31;;;;;;;31.88;16.33;;;;;;;;;;4839701;29;20044;-76
2023/03/09 03:59:57;;;;;;;27.73;15.38;;;;;;;;;;4839925;29;20068;-76
2023/03/09 04:02:23;;;;;;;25.48;15.88;;;;;;;;;;4841098;29;21979;-76
2023/03/09 04:04:49;;;;;;;24.05;14.93;;;;;;;;;;4840365;29;20095;-76
2023/03/09 04:07:15;;;;;;;28.92;16.40;;;;;;;;;;4829084;29;20451;-76
2023/03/09 04:09:41;;;;;;;31.27;15.55;;;;;;;;;;4838724;29;20171;-77
2023/03/09 04:12:08;;;;;;;25.20;16.23;;;;;;;;;;4837535;29;20230;-75
2023/03/09 04:14:34;;;;;;;28.80;15.93;;;;;;;;;;4841287;29;20502;-76
2023/03/09 04:17:00;;;;;;;28.25;16.83;;;;;;;;;;4837553;29;20195;-75
2023/03/09 04:19:26;;;;;;;26.70;15.63;;;;;;;;;;4842477;29;20044;-76
2023/03/09 04:21:52;;;;;;;26.48;15.50;;;;;;;;;;4841322;29;20053;-75
2023/03/09 04:24:18;;;;;;;24.98;15.82;;;;;;;;;;4858911;29;20051;-76
2023/03/09 04:26:44;;;;;;;27.75;15.68;;;;;;;;;;4838338;29;20048;-75
2023/03/09 04:29:10;;;;;;;24.45;15.68;;;;;;;;;;4838903;29;20063;-75
2023/03/09 04:31:36;;;;;;;23.42;15.38;;;;;;;;;;4825766;29;20044;-76
2023/03/09 04:34:02;;;;;;;24.77;16.05;;;;;;;;;;4841861;29;20080;-76
2023/03/09 04:36:30;;;;;;;25.77;14.13;;;;;;;;;;4840006;29;20051;-76
2023/03/09 04:38:56;;;;;;;23.10;13.70;;;;;;;;;;4843140;29;20064;-75
2023/03/09 04:41:22;;;;;;;23.48;14.90;;;;;;;;;;4828769;29;20541;-75
2023/03/09 04:43:48;;;;;;;28.23;16.33;;;;;;;;;;4845841;29;20283;-76
2023/03/09 04:46:14;;;;;;;24.30;15.18;;;;;;;;;;4842825;29;20049;-76
2023/03/09 04:48:40;;;;;;;27.15;14.93;;;;;;;;;;4826948;29;20202;-76
2023/03/09 04:51:07;;;;;;;24.45;14.68;;;;;;;;;;4830619;29;20044;-76
2023/03/09 04:53:33;;;;;;;24.17;14.82;;;;;;;;;;4843252;29;20048;-76
2023/03/09 04:55:59;;;;;;;22.27;14.18;;;;;;;;;;4824738;29;20690;-76
2023/03/09 04:58:25;;;;;;;24.90;15.60;;;;;;;;;;4843504;29;20124;-76
2023/03/09 05:00:51;;;;;;;24.45;14.88;;;;;;;;;;4844491;29;20915;-76
2023/03/09 05:03:17;;;;;;;24.65;14.95;;;;;;;;;;4858866;29;20492;-76
2023/03/09 05:05:43;;;;;;;27.85;16.23;;;;;;;;;;4841623;29;20230;-76
2023/03/09 05:08:09;;;;;;;24.70;14.75;;;;;;;;;;4841462;29;20055;-76
2023/03/09 05:10:35;;;;;;;24.15;15.82;;;;;;;;;;4842763;29;20073;-76
2023/03/09 05:13:01;;;;;;;27.88;15.73;;;;;;;;;;4842647;29;20705;-76
2023/03/09 05:15:28;;;;;;;25.55;14.93;;;;;;;;;;4858564;29;20041;-76
2023/03/09 05:17:54;;;;;;;27.83;16.10;;;;;;;;;;4818555;29;20177;-76
2023/03/09 05:20:20;;;;;;;30.10;16.73;;;;;;;;;;4850260;29;20057;-75
2023/03/09 05:22:46;;;;;;;24.13;15.27;;;;;;;;;;4847476;29;20064;-76
2023/03/09 05:25:12;;;;;;;26.52;15.40;;;;;;;;;;4843825;29;20044;-76
2023/03/09 05:27:38;;;;;;;25.17;15.88;;;;;;;;;;4833898;29;20033;-76
2023/03/09 05:30:05;;;;;;;24.63;16.15;;;;;;;;;;4845262;29;20057;-77
2023/03/09 05:32:31;;;;;;;24.55;16.08;;;;;;;;;;4824756;29;20076;-76
2023/03/09 05:34:57;;;;;;;27.10;16.00;;;;;;;;;;4835213;29;20053;-76
2023/03/09 05:37:24;;;;;;;23.48;15.98;;;;;;;;;;4841965;29;20304;-76
2023/03/09 05:39:50;;;;;;;26.58;15.73;;;;;;;;;;4835211;29;20060;-76
2023/03/09 05:42:16;;;;;;;26.00;15.60;;;;;;;;;;4828046;29;20639;-77
2023/03/09 05:44:43;;;;;;;27.70;15.48;;;;;;;;;;4842459;29;20044;-76
2023/03/09 05:47:09;;;;;;;23.85;16.27;;;;;;;;;;4844054;29;22051;-76
2023/03/09 05:49:35;;;;;;;26.15;16.50;;;;;;;;;;4831049;29;20053;-76
2023/03/09 05:52:01;;;;;;;27.13;15.95;;;;;;;;;;4828536;29;20060;-76
2023/03/09 05:54:27;;;;;;;27.20;14.80;;;;;;;;;;4845576;29;20040;-76
2023/03/09 05:56:54;;;;;;;26.50;16.08;;;;;;;;;;4846913;29;20080;-76
2023/03/09 05:59:20;;;;;;;24.88;15.23;;;;;;;;;;4846800;29;20096;-76
2023/03/09 06:01:47;;;;;;;29.23;15.20;;;;;;;;;;4847742;29;20093;-76
2023/03/09 06:04:13;;;;;;;24.38;15.95;;;;;;;;;;4847599;29;20067;-75
2023/03/09 06:06:39;;;;;;;25.63;15.55;;;;;;;;;;4862807;29;20057;-76
2023/03/09 06:09:05;;;;;;;26.38;15.70;;;;;;;;;;4820134;29;20052;-77
2023/03/09 06:11:31;;;;;;;23.15;15.25;;;;;;;;;;4847293;29;20454;-76
2023/03/09 06:13:57;;;;;;;24.13;14.85;;;;;;;;;;4827250;29;20041;-76
2023/03/09 06:16:24;;;;;;;26.08;17.02;;;;;;;;;;4848654;29;20154;-76
2023/03/09 06:18:50;;;;;;;26.90;16.92;;;;;;;;;;4850361;29;20057;-76
2023/03/09 06:21:16;;;;;;;25.00;15.23;;;;;;;;;;4859108;29;20048;-76
2023/03/09 06:23:42;;;;;;;26.42;14.88;;;;;;;;;;4865645;29;20448;-76
2023/03/09 06:26:10;;;;;;;28.15;15.73;;;;;;;;;;4832340;29;20782;-77
2023/03/09 06:28:36;;;;;;;25.33;15.93;;;;;;;;;;4849248;29;20109;-77
2023/03/09 06:31:12;;;;;;;27.95;16.38;;;;;;;;;;4849726;29;20509;-77
2023/03/09 06:33:38;;;;;;;24.40;15.45;;;;;;;;;;4845444;29;20040;-76
2023/03/09 06:36:05;;;;;;;23.75;15.15;;;;;;;;;;4817441;29;20063;-76
2023/03/09 06:38:31;;;;;;;25.15;16.45;;;;;;;;;;4845704;29;20080;-77
2023/03/09 06:40:57;;;;;;;25.67;16.67;;;;;;;;;;4833516;29;20052;-77
2023/03/09 06:43:23;;;;;;;27.70;16.02;;;;;;;;;;4856054;29;20052;-76
2023/03/09 06:45:49;;;;;;;27.05;17.05;;;;;;;;;;4830716;29;20059;-76
2023/03/09 06:48:16;;;;;;;38.15;17.95;;;;;;;;;;4847847;29;20095;-77
2023/03/09 06:50:43;;;;;;;24.70;16.33;;;;;;;;;;4846429;29;20512;-77
2023/03/09 06:53:10;;;;;;;27.77;16.40;;;;;;;;;;4845256;29;20048;-77
2023/03/09 06:55:37;;;;;;;29.83;17.25;;;;;;;;;;4861272;29;20044;-76
2023/03/09 06:58:03;;;;;;;28.52;17.25;;;;;;;;;;4846096;29;20052;-76
2023/03/09 07:00:29;;;;;;;26.92;16.42;;;;;;;;;;4857472;29;20057;-76
2023/03/09 07:02:55;;;;;;;29.10;17.20;;;;;;;;;;4853093;29;20429;-76
2023/03/09 07:05:21;;;;;;;30.75;17.38;;;;;;;;;;4834826;29;20379;-77
2023/03/09 07:07:48;;;;;;;28.13;16.55;;;;;;;;;;4849249;29;20105;-77
2023/03/09 07:10:14;;;;;;;29.20;17.20;;;;;;;;;;4845253;29;20083;-77
2023/03/09 07:12:41;;;;;;;26.38;15.70;;;;;;;;;;4833249;29;20037;-76
2023/03/09 07:15:07;;;;;;;27.83;16.27;;;;;;;;;;4847036;29;20041;-76
2023/03/09 07:17:34;;;;;;;26.23;17.00;;;;;;;;;;4830699;29;20078;-76
2023/03/09 07:20:00;;;;;;;27.48;17.92;;;;;;;;;;4845065;29;20064;-76
2023/03/09 07:22:26;;;;;;;31.83;17.30;;;;;;;;;;4853548;29;20063;-76
2023/03/09 07:24:52;;;;;;;28.02;17.88;;;;;;;;;;4849946;29;20045;-76
2023/03/09 07:27:22;;;;;;;26.63;16.30;;;;;;;;;;4863893;29;20057;-76
2023/03/09 07:29:48;;;;;;;28.42;18.02;;;;;;;;;;4847928;29;20076;-76
2023/03/09 07:32:14;;;;;;;25.65;16.67;;;;;;;;;;4847857;29;20048;-76
2023/03/09 07:34:40;;;;;;;28.05;17.90;;;;;;;;;;4850533;29;20053;-76
2023/03/09 07:37:06;;;;;;;26.13;16.75;;;;;;;;;;4849300;29;20052;-76
2023/03/09 07:39:32;;;;;;;27.77;17.58;;;;;;;;;;4856160;29;21147;-76
2023/03/09 07:41:58;;;;;;;24.25;17.23;;;;;;;;;;4866003;29;20147;-76
2023/03/09 07:44:24;;;;;;;27.02;17.45;;;;;;;;;;4849074;29;20056;-76
2023/03/09 07:46:50;;;;;;;29.85;17.33;;;;;;;;;;4815564;29;20048;-76
2023/03/09 07:49:18;;;;;;;25.58;16.17;;;;;;;;;;4845727;29;20746;-76
2023/03/09 07:51:44;;;;;;;25.45;17.33;;;;;;;;;;4846091;29;20059;-78
2023/03/09 07:54:10;;;;;;;25.92;15.55;;;;;;;;;;4820268;29;20052;-77
2023/03/09 07:56:36;;;;;;;26.08;17.80;;;;;;;;;;4846185;29;20430;-73
2023/03/09 07:59:03;;;;;;;28.25;17.80;;;;;;;;;;4843499;29;20060;-75
2023/03/09 08:01:30;;;;;;;28.45;16.77;;;;;;;;;;4845044;29;20346;-75
2023/03/09 08:03:56;;;;;;;28.58;16.55;;;;;;;;;;4845134;29;20079;-76
2023/03/09 08:06:23;;;;;;;23.60;15.55;;;;;;;;;;4844494;29;20123;-76
2023/03/09 08:08:49;;;;;;;25.40;15.68;;;;;;;;;;4832741;29;20063;-76
2023/03/09 08:11:16;;;;;;;26.58;16.42;;;;;;;;;;4859975;29;20053;-76
2023/03/09 08:13:42;;;;;;;23.85;15.55;;;;;;;;;;4846616;29;20059;-76
2023/03/09 08:16:09;;;;;;;26.80;16.25;;;;;;;;;;4846063;29;20052;-75
2023/03/09 08:18:35;;;;;;;22.67;15.57;;;;;;;;;;4830642;29;20061;-76
2023/03/09 08:21:05;;;;;;;21.45;14.82;;;;;;;;;;4832595;29;20633;-75
2023/03/09 08:23:34;;;;;;;23.48;15.20;;;;;;;;;;4831872;29;20770;-75
2023/03/09 08:26:00;;;;;;;21.77;14.90;;;;;;;;;;4830433;29;20561;-76
2023/03/09 08:28:26;;;;;;;22.45;14.63;;;;;;;;;;4844163;29;20162;-76
2023/03/09 08:30:52;;;;;;;26.75;15.73;;;;;;;;;;4844173;29;20052;-76
2023/03/09 08:33:18;;;;;;;21.30;14.15;;;;;;;;;;4823951;29;20958;-76
2023/03/09 08:35:44;;;;;;;19.73;14.45;;;;;;;;;;4847842;29;20771;-75
2023/03/09 08:38:10;;;;;;;18.08;13.55;;;;;;;;;;4848933;29;20053;-75
2023/03/09 08:40:38;;;;;;;19.92;12.77;;;;;;;;;;4846190;29;20418;-76
2023/03/09 08:43:04;;;;;;;19.90;14.40;;;;;;;;;;4844013;29;20049;-76
2023/03/09 08:45:30;;;;;;;18.20;12.93;;;;;;;;;;4835773;29;20513;-75
2023/03/09 08:47:56;;;;;;;16.35;12.63;;;;;;;;;;4860695;29;20048;-76
2023/03/09 08:50:23;;;;;;;18.10;12.00;;;;;;;;;;4828995;29;20049;-76
2023/03/09 08:52:49;;;;;;;23.13;12.90;;;;;;;;;;4840561;29;20049;-75
2023/03/09 08:55:15;;;;;;;20.42;12.98;;;;;;;;;;4842206;29;20603;-75
2023/03/09 08:57:44;;;;;;;18.00;13.13;;;;;;;;;;4839780;29;20052;-76
2023/03/09 09:00:11;;;;;;;17.77;12.30;;;;;;;;;;4848103;29;20124;-76
2023/03/09 09:02:38;;;;;;;16.08;11.38;;;;;;;;;;4825366;29;20059;-75
2023/03/09 09:05:04;;;;;;;16.67;11.93;;;;;;;;;;4807910;29;20056;-75
2023/03/09 09:07:30;;;;;;;17.77;11.75;;;;;;;;;;4842495;29;20052;-76
2023/03/09 09:09:58;;;;;;;15.25;11.32;;;;;;;;;;4825706;29;20044;-75
2023/03/09 09:12:25;;;;;;;13.63;9.68;;;;;;;;;;4842761;29;20135;-75
2023/03/09 09:14:52;;;;;;;18.77;11.48;;;;;;;;;;4841458;29;20053;-75
2023/03/09 09:17:18;;;;;;;16.25;11.52;;;;;;;;;;4843633;29;20045;-76
2023/03/09 09:19:44;;;;;;;17.15;11.75;;;;;;;;;;4845875;29;20053;-76
2023/03/09 09:22:10;;;;;;;15.77;11.32;;;;;;;;;;4857048;29;20060;-76
2023/03/09 09:24:37;;;;;;;15.40;11.25;;;;;;;;;;4835845;29;20087;-76
2023/03/09 09:27:05;;;;;;;17.00;10.65;;;;;;;;;;4841047;29;20476;-76
2023/03/09 09:29:31;;;;;;;16.15;11.75;;;;;;;;;;4844098;29;20121;-76
2023/03/09 09:31:57;;;;;;;16.63;11.13;;;;;;;;;;4845534;29;20049;-76
2023/03/09 09:34:23;;;;;;;14.80;10.98;;;;;;;;;;4827510;29;20083;-76
2023/03/09 09:36:50;;;;;;;15.75;11.43;;;;;;;;;;4843942;29;20083;-75
2023/03/09 09:39:17;;;;;;;16.45;10.95;;;;;;;;;;4845470;29;20578;-76
2023/03/09 09:41:48;;;;;;;14.40;9.70;;;;;;;;;;4829301;29;20416;-75
2023/03/09 09:44:34;;;;;;;14.60;10.57;;;;;;;;;;4845915;29;20589;-76
2023/03/09 09:47:03;;;;;;;13.95;10.25;;;;;;;;;;4848057;29;20052;-76
2023/03/09 09:49:30;;;;;;;14.38;9.65;;;;;;;;;;4846580;29;20053;-76
2023/03/09 09:52:03;;;;;;;12.75;9.57;;;;;;;;;;4850364;29;20051;-76
2023/03/09 09:54:32;;;;;;;11.50;9.05;;;;;;;;;;4865223;29;20081;-76
2023/03/09 09:57:00;;;;;;;14.90;8.95;;;;;;;;;;4855210;29;20048;-76
2023/03/09 09:59:34;;;;;;;11.52;8.75;;;;;;;;;;4857517;29;20144;-75
2023/03/09 10:02:09;;;;;;;13.75;8.85;;;;;;;;;;4833035;29;20056;-77
2023/03/09 10:04:45;;;;;;;10.27;7.78;;;;;;;;;;4851439;29;20072;-75
2023/03/09 10:07:22;;;;;;;14.30;8.00;;;;;;;;;;4849372;29;20072;-75
2023/03/09 10:09:55;;;;;;;12.18;7.68;;;;;;;;;;4858218;29;20045;-74
2023/03/09 10:12:21;;;;;;;10.50;7.80;;;;;;;;;;4851502;29;20056;-74
2023/03/09 10:15:05;;;;;;;9.98;7.63;;;;;;;;;;4852031;29;20610;-75
2023/03/09 10:17:34;;;;;;;11.65;7.88;;;;;;;;;;4867051;29;20041;-75
2023/03/09 10:20:02;;;;;;;11.48;8.10;;;;;;;;;;4852210;29;20138;-75
2023/03/09 10:22:28;;;;;;;10.35;8.00;;;;;;;;;;4849950;29;20091;-76
2023/03/09 10:24:56;;;;;;;10.82;8.32;;;;;;;;;;4846068;29;20176;-75
2023/03/09 10:27:42;;;;;;;11.10;8.15;;;;;;;;;;4852826;29;20112;-75
2023/03/09 10:30:08;;;;;;;11.32;7.65;;;;;;;;;;4846963;29;20114;-75
2023/03/09 10:32:40;;;;;;;10.52;7.97;;;;;;;;;;4847660;29;20064;-75
2023/03/09 10:35:25;;;;;;;10.63;7.75;;;;;;;;;;4847795;29;20476;-75
2023/03/09 10:37:52;;;;;;;11.45;7.95;;;;;;;;;;4848905;29;20085;-75
2023/03/09 10:40:26;;;;;;;10.32;7.68;;;;;;;;;;4829446;29;20183;-75
2023/03/09 10:42:53;;;;;;;12.10;7.93;;;;;;;;;;4847304;29;20068;-75
2023/03/09 10:45:24;;;;;;;10.05;7.57;;;;;;;;;;4846495;29;20053;-75
2023/03/09 10:47:54;;;;;;;8.85;6.93;;;;;;;;;;4849416;29;20083;-75
2023/03/09 10:50:21;;;;;;;8.88;6.45;;;;;;;;;;4850158;29;20053;-75
2023/03/09 10:52:47;;;;;;;9.73;6.63;;;;;;;;;;4854304;29;20608;-76
2023/03/09 10:55:27;;;;;;;8.77;7.18;;;;;;;;;;4846929;29;20735;-75
2023/03/09 10:57:56;;;;;;;9.68;6.57;;;;;;;;;;4832451;29;20077;-75
2023/03/09 11:00:22;;;;;;;9.43;6.88;;;;;;;;;;4848923;29;20057;-75
2023/03/09 11:03:11;;;;;;;8.98;7.20;;;;;;;;;;4830520;29;20048;-76
2023/03/09 11:05:37;;;;;;;11.93;8.27;;;;;;;;;;4845517;29;20061;-75
2023/03/09 11:08:07;;;;;;;12.63;7.82;;;;;;;;;;4847373;29;20045;-75
2023/03/09 11:10:34;;;;;;;10.63;8.07;;;;;;;;;;4832998;29;20060;-75
2023/03/09 11:13:02;;;;;;;9.75;7.72;;;;;;;;;;4846663;29;20071;-75
2023/03/09 11:15:31;;;;;;;8.63;7.07;;;;;;;;;;4858905;29;20048;-75
2023/03/09 11:17:58;;;;;;;9.43;7.32;;;;;;;;;;4846582;29;20048;-75
2023/03/09 11:20:24;;;;;;;8.65;7.55;;;;;;;;;;4865564;29;20040;-75
2023/03/09 11:23:13;;;;;;;11.95;7.78;;;;;;;;;;4849737;29;20536;-75
2023/03/09 11:26:02;;;;;;;9.80;7.60;;;;;;;;;;4840738;29;20391;-75
2023/03/09 11:28:34;;;;;;;10.88;7.38;;;;;;;;;;4833118;29;20172;-75
2023/03/09 11:31:00;;;;;;;11.23;7.45;;;;;;;;;;4848012;29;20498;-75
2023/03/09 11:33:29;;;;;;;8.98;8.02;;;;;;;;;;4852776;29;20461;-75
2023/03/09 11:35:55;;;;;;;10.65;8.23;;;;;;;;;;4850819;29;20509;-75
2023/03/09 11:38:22;;;;;;;10.57;7.85;;;;;;;;;;4845687;29;20647;-75
2023/03/09 11:40:51;;;;;;;7.82;6.88;;;;;;;;;;4842835;29;20045;-75
2023/03/09 11:43:20;;;;;;;10.63;7.22;;;;;;;;;;4841853;29;20094;-75
2023/03/09 11:45:47;;;;;;;8.38;6.75;;;;;;;;;;4843094;29;20135;-75
2023/03/09 11:48:21;;;;;;;9.48;7.80;;;;;;;;;;4830382;29;20081;-75
2023/03/09 11:51:03;;;;;;;9.18;7.13;;;;;;;;;;4847617;29;20047;-75
2023/03/09 11:53:37;;;;;;;7.78;6.63;;;;;;;;;;4830045;29;20045;-74
2023/03/09 11:56:07;;;;;;;8.15;7.00;;;;;;;;;;4849563;29;20120;-75
2023/03/09 11:58:38;;;;;;;8.18;6.70;;;;;;;;;;4864634;29;20044;-74
2023/03/09 12:01:10;;;;;;;7.35;6.43;;;;;;;;;;4843877;29;20053;-75
2023/03/09 12:03:41;;;;;;;8.90;6.63;;;;;;;;;;4845184;29;20060;-75
2023/03/09 12:06:20;;;;;;;8.70;6.97;;;;;;;;;;4845113;29;20111;-73
2023/03/09 12:08:47;;;;;;;9.45;6.97;;;;;;;;;;4845548;29;20041;-74
2023/03/09 12:11:19;;;;;;;7.80;6.43;;;;;;;;;;4860171;29;20044;-74
2023/03/09 12:13:54;;;;;;;7.53;6.72;;;;;;;;;;4842940;29;20051;-74
2023/03/09 12:16:29;;;;;;;9.85;6.13;;;;;;;;;;4858734;29;20095;-74
2023/03/09 12:19:14;;;;;;;8.70;6.65;;;;;;;;;;4836907;29;20449;-74
2023/03/09 12:21:42;;;;;;;8.32;6.68;;;;;;;;;;4847474;29;20441;-74
2023/03/09 12:24:34;;;;;;;7.68;6.07;;;;;;;;;;4846100;29;20163;-74
2023/03/09 12:27:13;;;;;;;7.82;6.72;;;;;;;;;;4856637;29;21486;-74
2023/03/09 12:29:46;;;;;;;7.72;6.35;;;;;;;;;;4843853;29;20049;-74
2023/03/09 12:32:18;;;;;;;8.02;6.50;;;;;;;;;;4861410;29;20144;-74
2023/03/09 12:34:45;;;;;;;7.00;6.28;;;;;;;;;;4825836;29;20048;-75
2023/03/09 12:37:29;;;;;;;9.57;6.78;;;;;;;;;;4841648;29;20059;-74
2023/03/09 12:40:00;;;;;;;9.80;6.75;;;;;;;;;;4844208;29;20644;-74
2023/03/09 12:42:28;;;;;;;9.65;7.25;;;;;;;;;;4857954;29;20045;-74
2023/03/09 12:44:57;;;;;;;7.80;6.65;;;;;;;;;;4858407;29;20496;-75
2023/03/09 12:47:25;;;;;;;9.63;6.65;;;;;;;;;;4851789;29;20052;-74
2023/03/09 12:49:56;;;;;;;6.75;6.05;;;;;;;;;;4846846;29;20049;-74
2023/03/09 12:52:31;;;;;;;7.50;6.28;;;;;;;;;;4846405;29;20400;-74
2023/03/09 12:54:59;;;;;;;8.60;6.25;;;;;;;;;;4844039;29;20093;-75
2023/03/09 12:57:25;;;;;;;7.97;6.53;;;;;;;;;;4834698;29;20063;-74
2023/03/09 12:59:51;;;;;;;7.78;6.88;;;;;;;;;;4848111;29;20064;-74
2023/03/09 13:02:38;;;;;;;7.45;6.35;;;;;;;;;;4842528;29;20056;-74
2023/03/09 13:05:24;;;;;;;7.47;6.47;;;;;;;;;;4847697;29;20111;-74
2023/03/09 13:08:07;;;;;;;9.07;6.60;;;;;;;;;;4846692;29;20106;-74
2023/03/09 13:10:34;;;;;;;7.85;6.38;;;;;;;;;;4853958;29;20113;-74
2023/03/09 13:13:19;;;;;;;8.68;7.20;;;;;;;;;;4828938;29;20041;-74
2023/03/09 13:15:46;;;;;;;9.05;7.32;;;;;;;;;;4846220;29;20041;-74
2023/03/09 13:18:21;;;;;;;9.38;7.28;;;;;;;;;;4844639;29;20047;-74
2023/03/09 13:20:47;;;;;;;9.13;7.15;;;;;;;;;;4847762;29;21648;-74
2023/03/09 13:23:15;;;;;;;8.63;7.25;;;;;;;;;;4834529;29;20107;-73
2023/03/09 13:25:47;;;;;;;11.77;7.00;;;;;;;;;;4849559;29;20075;-74
2023/03/09 13:28:21;;;;;;;8.23;6.85;;;;;;;;;;4850393;29;20055;-73
2023/03/09 13:30:48;;;;;;;8.93;6.72;;;;;;;;;;4868256;29;20048;-74
2023/03/09 13:33:26;;;;;;;9.00;7.30;;;;;;;;;;4853331;29;20044;-74
2023/03/09 13:35:57;;;;;;;11.05;7.38;;;;;;;;;;4870678;29;20135;-73
2023/03/09 13:38:31;;;;;;;8.38;7.47;;;;;;;;;;4869166;29;20136;-72
2023/03/09 13:40:59;;;;;;;10.00;7.68;;;;;;;;;;4851380;29;20053;-73
2023/03/09 13:43:27;;;;;;;10.65;7.78;;;;;;;;;;4849100;29;20159;-72
2023/03/09 13:45:55;;;;;;;9.35;7.45;;;;;;;;;;4849421;29;20056;-74
2023/03/09 13:48:21;;;;;;;9.55;8.00;;;;;;;;;;4854274;29;20045;-74
2023/03/09 13:50:48;;;;;;;9.27;8.32;;;;;;;;;;4849888;29;20064;-74
2023/03/09 13:53:14;;;;;;;8.05;6.95;;;;;;;;;;4847597;29;20097;-74
2023/03/09 13:55:40;;;;;;;9.32;7.80;;;;;;;;;;4848595;29;20066;-74
2023/03/09 13:58:16;;;;;;;9.30;7.72;;;;;;;;;;4848528;29;21636;-73
2023/03/09 14:00:52;;;;;;;10.45;8.55;;;;;;;;;;4834678;29;20501;-74
2023/03/09 14:03:18;;;;;;;9.77;8.25;;;;;;;;;;4845589;29;20753;-74
2023/03/09 14:05:53;;;;;;;10.05;8.40;;;;;;;;;;4863423;29;20101;-74
2023/03/09 14:08:21;;;;;;;11.18;8.73;;;;;;;;;;4835481;29;21170;-75
2023/03/09 14:10:47;;;;;;;11.20;9.07;;;;;;;;;;4864400;29;20053;-73
2023/03/09 14:13:40;;;;;;;9.88;8.52;;;;;;;;;;4847550;29;20117;-74
2023/03/09 14:16:07;;;;;;;11.82;9.13;;;;;;;;;;4861025;29;20053;-73
2023/03/09 14:18:33;;;;;;;10.40;9.00;;;;;;;;;;4850334;29;20693;-74
2023/03/09 14:21:00;;;;;;;12.40;9.25;;;;;;;;;;4848040;29;20139;-73
2023/03/09 14:23:32;;;;;;;14.63;9.18;;;;;;;;;;4846746;29;20056;-74
2023/03/09 14:25:58;;;;;;;12.10;9.45;;;;;;;;;;4843201;29;20223;-74
2023/03/09 14:28:26;;;;;;;12.70;9.57;;;;;;;;;;4845443;29;20176;-74
2023/03/09 14:30:53;;;;;;;11.30;8.95;;;;;;;;;;4844328;29;20052;-73